createdAt,value
2018-12-24T00:01:28.567Z,18.37
2018-12-24T00:03:58.731Z,17.62
2018-12-24T00:06:28.843Z,16.62
2018-12-24T00:08:58.830Z,17.82
2018-12-24T00:11:28.775Z,17.05
2018-12-24T00:13:58.897Z,16.82
2018-12-24T00:16:28.812Z,16.10
2018-12-24T00:18:58.845Z,16.25
2018-12-24T00:21:28.952Z,16.32
2018-12-24T00:23:58.973Z,15.63
2018-12-24T00:26:28.977Z,16.70
2018-12-24T00:28:59.002Z,17.27
2018-12-24T00:31:29.009Z,15.85
2018-12-24T00:33:59.180Z,15.88
2018-12-24T00:36:29.082Z,16.30
2018-12-24T00:38:59.044Z,15.55
2018-12-24T00:41:29.015Z,16.20
2018-12-24T00:43:59.115Z,16.10
2018-12-24T00:46:29.173Z,15.35
2018-12-24T00:48:59.248Z,15.63
2018-12-24T00:51:29.478Z,14.75
2018-12-24T00:53:59.492Z,14.80
2018-12-24T00:56:29.416Z,15.13
2018-12-24T00:58:59.638Z,14.87
2018-12-24T01:01:29.700Z,13.83
2018-12-24T01:03:59.742Z,15.40
2018-12-24T01:06:29.787Z,14.45
2018-12-24T01:08:59.916Z,13.88
2018-12-24T01:11:29.930Z,14.60
2018-12-24T01:14:00.041Z,13.83
2018-12-24T01:16:30.276Z,15.05
2018-12-24T01:19:00.287Z,14.70
2018-12-24T01:21:30.311Z,14.10
2018-12-24T01:24:00.421Z,13.88
2018-12-24T01:26:30.447Z,13.68
2018-12-24T01:29:00.465Z,13.98
2018-12-24T01:31:30.600Z,13.28
2018-12-24T01:34:00.564Z,13.83
2018-12-24T01:36:30.499Z,13.95
2018-12-24T01:39:00.641Z,14.58
2018-12-24T01:41:30.713Z,13.48
2018-12-24T01:44:00.642Z,13.43
2018-12-24T01:46:30.589Z,13.55
2018-12-24T01:49:00.821Z,13.80
2018-12-24T01:51:30.943Z,12.05
2018-12-24T01:54:00.948Z,12.85
2018-12-24T01:56:31.071Z,13.70
2018-12-24T01:59:01.194Z,13.22
2018-12-24T02:01:31.212Z,13.35
2018-12-24T02:04:01.440Z,13.43
2018-12-24T02:06:31.474Z,12.75
2018-12-24T02:09:01.477Z,12.98
2018-12-24T02:11:31.601Z,12.78
2018-12-24T02:14:01.580Z,11.78
2018-12-24T02:16:31.498Z,12.15
2018-12-24T02:19:01.740Z,12.10
2018-12-24T02:21:31.881Z,11.90
2018-12-24T02:24:02.095Z,12.53
2018-12-24T02:26:32.130Z,12.00
2018-12-24T02:29:02.228Z,11.57
2018-12-24T02:31:32.233Z,11.45
2018-12-24T02:34:02.302Z,12.55
2018-12-24T02:36:32.499Z,11.65
2018-12-24T02:39:02.498Z,12.07
2018-12-24T02:41:32.495Z,11.40
2018-12-24T02:44:02.539Z,12.03
2018-12-24T02:46:32.680Z,11.88
2018-12-24T02:49:02.643Z,12.05
2018-12-24T02:51:32.807Z,11.50
2018-12-24T02:54:02.919Z,11.00
2018-12-24T02:56:32.955Z,11.83
2018-12-24T02:59:02.971Z,11.40
2018-12-24T03:01:33.080Z,10.75
2018-12-24T03:04:03.097Z,11.00
2018-12-24T03:06:33.126Z,11.53
2018-12-24T03:09:04.254Z,11.38
2018-12-24T03:11:34.270Z,10.60
2018-12-24T03:14:04.294Z,10.55
2018-12-24T03:16:34.430Z,11.33
2018-12-24T03:19:04.504Z,11.28
2018-12-24T03:21:34.454Z,11.00
2018-12-24T03:24:04.675Z,10.50
2018-12-24T03:26:34.726Z,10.08
2018-12-24T03:29:04.674Z,10.20
2018-12-24T03:31:34.742Z,10.50
2018-12-24T03:34:04.542Z,10.90
2018-12-24T03:36:34.593Z,10.35
2018-12-24T03:39:05.501Z,10.40
2018-12-24T03:41:35.520Z,10.08
2018-12-24T03:44:05.747Z,10.10
2018-12-24T03:46:35.796Z,10.20
2018-12-24T03:49:05.773Z,10.45
2018-12-24T03:51:35.905Z,10.45
2018-12-24T03:54:05.919Z,10.08
2018-12-24T03:56:35.958Z,10.08
2018-12-24T03:59:06.059Z,10.25
2018-12-24T04:01:36.083Z,9.83
2018-12-24T04:04:06.379Z,9.70
2018-12-24T04:06:36.422Z,10.13
2018-12-24T04:09:07.868Z,9.48
2018-12-24T04:11:37.891Z,9.35
2018-12-24T04:14:08.120Z,9.83
2018-12-24T04:16:38.163Z,9.25
2018-12-24T04:19:08.109Z,9.53
2018-12-24T04:21:38.158Z,9.25
2018-12-24T04:24:08.209Z,8.75
2018-12-24T04:26:38.232Z,10.10
2018-12-24T04:29:08.408Z,9.08
2018-12-24T04:31:38.593Z,7.95
2018-12-24T04:34:08.666Z,8.23
2018-12-24T04:36:38.782Z,9.15
2018-12-24T04:39:08.808Z,8.13
2018-12-24T04:41:39.048Z,9.33
2018-12-24T04:44:09.070Z,8.53
2018-12-24T04:46:39.163Z,9.28
2018-12-24T04:49:09.195Z,8.65
2018-12-24T04:51:39.238Z,8.53
2018-12-24T04:54:09.376Z,8.18
2018-12-24T04:56:39.470Z,8.78
2018-12-24T04:59:09.426Z,8.18
2018-12-24T05:01:39.581Z,8.43
2018-12-24T05:04:09.495Z,8.70
2018-12-24T05:06:39.772Z,8.13
2018-12-24T05:09:09.862Z,8.33
2018-12-24T05:11:39.956Z,8.43
2018-12-24T05:14:09.937Z,7.87
2018-12-24T05:16:39.878Z,7.72
2018-12-24T05:19:10.022Z,7.85
2018-12-24T05:21:40.159Z,8.10
2018-12-24T05:24:10.230Z,7.70
2018-12-24T05:26:40.362Z,7.83
2018-12-24T05:29:10.612Z,8.10
2018-12-24T05:31:40.733Z,6.95
2018-12-24T05:34:10.796Z,7.87
2018-12-24T05:36:40.863Z,7.55
2018-12-24T05:39:54.898Z,7.90
2018-12-24T05:42:24.507Z,7.70
2018-12-24T05:44:54.291Z,6.95
2018-12-24T05:47:23.838Z,7.10
2018-12-24T05:49:53.335Z,7.20
2018-12-24T05:52:23.050Z,6.22
2018-12-24T05:54:52.757Z,7.25
2018-12-24T05:57:22.263Z,7.30
2018-12-24T05:59:51.762Z,6.33
2018-12-24T06:02:21.397Z,6.58
2018-12-24T06:04:50.975Z,6.53
2018-12-24T06:07:20.493Z,6.25
2018-12-24T06:09:50.051Z,5.97
2018-12-24T06:12:19.664Z,5.92
2018-12-24T06:14:49.320Z,6.22
2018-12-24T06:17:18.957Z,6.00
2018-12-24T06:19:48.523Z,5.60
2018-12-24T06:22:18.110Z,5.45
2018-12-24T06:24:47.755Z,5.83
2018-12-24T06:27:17.475Z,5.28
2018-12-24T06:29:47.099Z,5.22
2018-12-24T06:32:16.981Z,5.58
2018-12-24T06:34:46.599Z,5.40
2018-12-24T06:37:16.214Z,5.70
2018-12-24T06:39:45.817Z,5.25
2018-12-24T06:42:15.521Z,5.53
2018-12-24T06:44:45.339Z,5.87
2018-12-24T06:47:14.866Z,4.95
2018-12-24T06:49:44.452Z,4.92
2018-12-24T06:52:14.056Z,5.70
2018-12-24T06:54:43.797Z,5.53
2018-12-24T06:57:13.498Z,5.15
2018-12-24T06:59:43.194Z,5.53
2018-12-24T07:02:12.840Z,5.60
2018-12-24T07:04:42.412Z,5.60
2018-12-24T07:07:12.113Z,4.72
2018-12-24T07:09:41.766Z,5.75
2018-12-24T07:12:11.458Z,5.30
2018-12-24T07:14:41.045Z,5.28
2018-12-24T07:17:10.727Z,5.08
2018-12-24T07:19:40.485Z,5.53
2018-12-24T07:22:10.109Z,5.35
2018-12-24T07:24:39.900Z,5.60
2018-12-24T07:27:09.487Z,5.08
2018-12-24T07:29:39.211Z,5.58
2018-12-24T07:32:08.820Z,5.85
2018-12-24T07:34:38.667Z,5.78
2018-12-24T07:37:10.010Z,5.22
2018-12-24T07:39:39.595Z,5.12
2018-12-24T07:42:09.290Z,5.30
2018-12-24T07:44:38.917Z,6.22
2018-12-24T07:47:08.513Z,5.50
2018-12-24T07:49:38.234Z,5.30
2018-12-24T07:52:07.855Z,5.72
2018-12-24T07:54:37.435Z,6.37
2018-12-24T07:57:07.031Z,5.92
2018-12-24T07:59:36.762Z,6.00
2018-12-24T08:02:06.393Z,6.35
2018-12-24T08:04:35.974Z,6.10
2018-12-24T08:07:05.683Z,5.95
2018-12-24T08:09:35.297Z,6.00
2018-12-24T08:12:04.796Z,5.87
2018-12-24T08:14:34.415Z,5.60
2018-12-24T08:17:04.213Z,6.42
2018-12-24T08:19:33.984Z,6.35
2018-12-24T08:22:03.609Z,5.10
2018-12-24T08:24:33.269Z,5.70
2018-12-24T08:27:02.848Z,6.50
2018-12-24T08:29:32.374Z,5.85
2018-12-24T08:32:02.080Z,6.37
2018-12-24T08:34:31.690Z,5.92
2018-12-24T08:37:01.292Z,5.67
2018-12-24T08:39:30.914Z,6.20
2018-12-24T08:42:00.528Z,5.37
2018-12-24T08:44:30.225Z,5.47
2018-12-24T08:46:59.750Z,5.20
2018-12-24T08:49:29.336Z,5.42
2018-12-24T08:51:58.944Z,5.92
2018-12-24T08:54:28.598Z,5.15
2018-12-24T08:56:58.182Z,6.20
2018-12-24T08:59:27.738Z,6.05
2018-12-24T09:01:58.153Z,5.42
2018-12-24T09:04:27.825Z,5.78
2018-12-24T09:06:57.612Z,5.95
2018-12-24T09:09:27.128Z,6.50
2018-12-24T09:11:56.939Z,6.20
2018-12-24T09:14:26.555Z,5.97
2018-12-24T09:16:56.159Z,6.03
2018-12-24T09:19:25.796Z,6.50
2018-12-24T09:21:55.481Z,5.95
2018-12-24T09:24:25.196Z,5.75
2018-12-24T09:26:54.725Z,5.95
2018-12-24T09:29:24.319Z,6.37
2018-12-24T09:31:53.907Z,6.87
2018-12-24T09:34:23.640Z,9.30
2018-12-24T09:36:53.433Z,10.03
2018-12-24T09:39:23.105Z,17.05
2018-12-24T09:41:52.755Z,9.70
2018-12-24T09:44:22.276Z,8.70
2018-12-24T09:46:51.875Z,8.85
2018-12-24T09:49:21.328Z,9.38
2018-12-24T09:51:50.911Z,9.70
2018-12-24T09:54:20.379Z,15.20
2018-12-24T09:56:50.009Z,12.05
2018-12-24T09:59:19.640Z,8.78
2018-12-24T10:01:49.322Z,9.90
2018-12-24T10:04:27.640Z,9.68
2018-12-24T10:07:00.134Z,10.43
2018-12-24T10:09:29.707Z,9.60
2018-12-24T10:11:59.218Z,9.38
2018-12-24T10:14:28.820Z,9.03
2018-12-24T10:17:00.634Z,9.05
2018-12-24T10:19:29.891Z,9.50
2018-12-24T10:21:59.404Z,9.50
2018-12-24T10:24:29.105Z,9.10
2018-12-24T10:26:58.789Z,9.63
2018-12-24T10:29:28.433Z,9.45
2018-12-24T10:31:58.062Z,8.50
2018-12-24T10:34:27.634Z,9.18
2018-12-24T10:36:57.244Z,9.50
2018-12-24T10:39:26.891Z,8.73
2018-12-24T10:41:56.579Z,8.73
2018-12-24T10:44:26.138Z,8.38
2018-12-24T10:46:55.810Z,8.73
2018-12-24T10:49:25.488Z,9.08
2018-12-24T10:51:55.005Z,9.00
2018-12-24T10:54:24.614Z,9.28
2018-12-24T10:56:54.230Z,9.35
2018-12-24T10:59:23.926Z,8.88
2018-12-24T11:01:53.542Z,8.73
2018-12-24T11:04:23.024Z,8.98
2018-12-24T11:06:52.650Z,9.55
2018-12-24T11:09:22.279Z,8.50
2018-12-24T11:11:51.988Z,8.63
2018-12-24T11:14:21.568Z,8.85
2018-12-24T11:16:51.160Z,8.60
2018-12-24T11:19:20.907Z,9.18
2018-12-24T11:21:50.545Z,9.23
2018-12-24T11:24:20.112Z,8.68
2018-12-24T11:26:49.801Z,9.00
2018-12-24T11:29:19.535Z,8.75
2018-12-24T11:31:49.155Z,8.33
2018-12-24T11:34:18.643Z,9.15
2018-12-24T11:36:48.369Z,8.53
2018-12-24T11:39:17.969Z,8.18
2018-12-24T11:41:47.590Z,8.15
2018-12-24T11:44:17.183Z,8.58
2018-12-24T11:46:46.773Z,8.70
2018-12-24T11:49:16.413Z,8.60
2018-12-24T11:51:46.125Z,8.20
2018-12-24T11:54:15.824Z,8.23
2018-12-24T11:56:45.334Z,8.55
2018-12-24T11:59:15.080Z,8.10
2018-12-24T12:01:44.766Z,7.72
2018-12-24T12:04:14.319Z,8.23
2018-12-24T12:06:43.980Z,8.20
2018-12-24T12:09:13.687Z,8.20
2018-12-24T12:11:43.196Z,7.83
2018-12-24T12:14:12.904Z,8.23
2018-12-24T12:16:42.648Z,7.87
2018-12-24T12:19:12.213Z,8.05
2018-12-24T12:21:41.789Z,7.95
2018-12-24T12:24:11.347Z,7.80
2018-12-24T12:26:41.080Z,8.08
2018-12-24T12:29:10.754Z,7.80
2018-12-24T12:31:40.469Z,7.62
2018-12-24T12:34:10.080Z,7.37
2018-12-24T12:36:39.675Z,7.60
2018-12-24T12:39:09.553Z,8.50
2018-12-24T12:41:39.198Z,7.28
2018-12-24T12:44:09.019Z,6.80
2018-12-24T12:46:38.568Z,7.65
2018-12-24T12:49:08.130Z,6.53
2018-12-24T12:51:37.743Z,7.65
2018-12-24T12:54:07.467Z,7.37
2018-12-24T12:56:37.175Z,7.58
2018-12-24T12:59:06.842Z,6.80
2018-12-24T13:01:36.417Z,6.97
2018-12-24T13:04:06.135Z,6.25
2018-12-24T13:06:35.804Z,6.70
2018-12-24T13:09:07.321Z,7.40
2018-12-24T13:11:37.070Z,6.62
2018-12-24T13:14:06.674Z,7.28
2018-12-24T13:16:36.285Z,7.00
2018-12-24T13:19:06.008Z,6.85
2018-12-24T13:21:35.715Z,7.00
2018-12-24T13:24:05.428Z,6.83
2018-12-24T13:26:34.966Z,6.83
2018-12-24T13:29:04.536Z,7.03
2018-12-24T13:31:34.217Z,7.03
2018-12-24T13:34:03.904Z,6.85
2018-12-24T13:36:33.454Z,6.17
2018-12-24T13:39:04.744Z,6.37
2018-12-24T13:41:34.426Z,6.55
2018-12-24T13:44:03.962Z,6.72
2018-12-24T13:46:34.048Z,6.45
2018-12-24T13:49:03.679Z,6.67
2018-12-24T13:51:33.373Z,6.78
2018-12-24T13:54:02.963Z,6.08
2018-12-24T13:56:32.581Z,5.67
2018-12-24T13:59:02.295Z,6.15
2018-12-24T14:01:31.975Z,6.33
2018-12-24T14:04:01.493Z,5.90
2018-12-24T14:06:31.110Z,6.47
2018-12-24T14:09:00.720Z,6.22
2018-12-24T14:11:30.338Z,6.30
2018-12-24T14:13:59.974Z,6.05
2018-12-24T14:16:29.651Z,6.25
2018-12-24T14:18:59.448Z,6.42
2018-12-24T14:21:29.084Z,5.75
2018-12-24T14:23:58.678Z,5.85
2018-12-24T14:26:28.276Z,6.53
2018-12-24T14:28:57.903Z,5.80
2018-12-24T14:31:27.542Z,5.75
2018-12-24T14:33:57.005Z,5.97
2018-12-24T14:36:26.588Z,5.95
2018-12-24T14:38:56.162Z,6.00
2018-12-24T14:41:25.752Z,6.35
2018-12-24T14:43:55.344Z,7.20
2018-12-24T14:46:25.660Z,5.95
2018-12-24T14:48:55.633Z,5.65
2018-12-24T14:51:25.310Z,5.90
2018-12-24T14:53:54.903Z,5.92
2018-12-24T14:56:24.631Z,5.87
2018-12-24T14:58:54.212Z,5.55
2018-12-24T15:01:23.857Z,5.42
2018-12-24T15:03:53.551Z,5.97
2018-12-24T15:06:23.154Z,5.40
2018-12-24T15:08:52.868Z,6.35
2018-12-24T15:11:22.477Z,6.15
2018-12-24T15:13:52.303Z,6.17
2018-12-24T15:16:21.903Z,6.08
2018-12-24T15:18:51.415Z,5.17
2018-12-24T15:21:21.119Z,5.58
2018-12-24T15:23:50.708Z,5.60
2018-12-24T15:26:20.335Z,5.47
2018-12-24T15:28:49.929Z,5.62
2018-12-24T15:31:19.541Z,5.42
2018-12-24T15:33:49.330Z,5.40
2018-12-24T15:36:19.013Z,5.35
2018-12-24T15:38:48.471Z,5.75
2018-12-24T15:41:18.059Z,5.62
2018-12-24T15:43:47.699Z,5.85
2018-12-24T15:46:17.403Z,5.42
2018-12-24T15:48:46.902Z,5.35
2018-12-24T15:51:17.035Z,5.40
2018-12-24T15:53:46.739Z,5.45
2018-12-24T15:56:16.397Z,5.78
2018-12-24T15:58:46.080Z,5.67
2018-12-24T16:01:15.876Z,5.28
2018-12-24T16:03:45.585Z,5.15
2018-12-24T16:06:15.611Z,5.58
2018-12-24T16:08:45.400Z,5.22
2018-12-24T16:11:15.042Z,5.03
2018-12-24T16:13:44.764Z,6.15
2018-12-24T16:16:14.441Z,5.10
2018-12-24T16:18:44.059Z,5.42
2018-12-24T16:21:13.668Z,5.33
2018-12-24T16:23:43.276Z,5.00
2018-12-24T16:26:12.874Z,5.00
2018-12-24T16:28:42.696Z,4.62
2018-12-24T16:31:12.333Z,5.12
2018-12-24T16:33:41.892Z,4.58
2018-12-24T16:36:11.410Z,4.80
2018-12-24T16:38:41.043Z,4.78
2018-12-24T16:41:10.740Z,5.20
2018-12-24T16:43:40.425Z,4.83
2018-12-24T16:46:10.088Z,4.33
2018-12-24T16:48:39.564Z,5.15
2018-12-24T16:51:09.064Z,5.25
2018-12-24T16:53:40.549Z,4.83
2018-12-24T16:56:10.411Z,5.00
2018-12-24T16:58:40.037Z,5.33
2018-12-24T17:01:09.678Z,4.78
2018-12-24T17:03:39.369Z,4.85
2018-12-24T17:06:08.969Z,4.40
2018-12-24T17:08:38.682Z,4.92
2018-12-24T17:11:08.360Z,4.40
2018-12-24T17:13:38.103Z,4.53
2018-12-24T17:16:07.709Z,4.28
2018-12-24T17:18:37.340Z,4.85
2018-12-24T17:21:07.179Z,5.20
2018-12-24T17:23:36.845Z,4.55
2018-12-24T17:26:06.464Z,5.08
2018-12-24T17:28:36.205Z,4.65
2018-12-24T17:31:05.874Z,4.70
2018-12-24T17:33:35.526Z,4.60
2018-12-24T17:36:05.437Z,4.25
2018-12-24T17:38:34.897Z,4.40
2018-12-24T17:41:04.517Z,4.40
2018-12-24T17:43:34.155Z,4.22
2018-12-24T17:46:03.976Z,4.15
2018-12-24T17:48:33.793Z,4.33
2018-12-24T17:51:03.720Z,4.05
2018-12-24T17:53:33.474Z,4.25
2018-12-24T17:56:03.108Z,4.25
2018-12-24T17:58:32.799Z,4.28
2018-12-24T18:01:02.562Z,4.10
2018-12-24T18:03:32.318Z,4.12
2018-12-24T18:06:01.857Z,3.70
2018-12-24T18:08:31.450Z,4.20
2018-12-24T18:11:00.997Z,3.90
2018-12-24T18:13:30.687Z,3.83
2018-12-24T18:16:00.364Z,4.05
2018-12-24T18:18:29.972Z,3.83
2018-12-24T18:20:59.694Z,3.90
2018-12-24T18:23:29.444Z,4.08
2018-12-24T18:25:59.113Z,4.00
2018-12-24T18:28:28.728Z,3.40
2018-12-24T18:30:58.430Z,4.08
2018-12-24T18:33:28.052Z,3.80
2018-12-24T18:35:57.638Z,3.77
2018-12-24T18:38:27.356Z,4.25
2018-12-24T18:40:56.977Z,3.60
2018-12-24T18:43:26.678Z,4.08
2018-12-24T18:45:56.440Z,3.92
2018-12-24T18:48:25.983Z,3.80
2018-12-24T18:50:55.693Z,3.45
2018-12-24T18:53:25.337Z,3.70
2018-12-24T18:55:55.018Z,3.50
2018-12-24T18:58:24.779Z,3.20
2018-12-24T19:00:54.434Z,3.70
2018-12-24T19:03:23.948Z,3.75
2018-12-24T19:05:53.552Z,3.30
2018-12-24T19:08:23.189Z,3.62
2018-12-24T19:10:52.986Z,3.45
2018-12-24T19:13:22.673Z,3.65
2018-12-24T19:15:52.140Z,3.37
2018-12-24T19:18:21.806Z,3.22
2018-12-24T19:20:51.519Z,3.25
2018-12-24T19:23:21.119Z,3.08
2018-12-24T19:25:50.826Z,3.42
2018-12-24T19:28:20.436Z,3.50
2018-12-24T19:30:50.046Z,3.25
2018-12-24T19:33:19.664Z,3.27
2018-12-24T19:35:49.390Z,3.45
2018-12-24T19:38:18.987Z,3.45
2018-12-24T19:40:50.078Z,2.85
2018-12-24T19:43:19.635Z,3.17
2018-12-24T19:45:49.227Z,3.35
2018-12-24T19:48:19.485Z,3.15
2018-12-24T19:50:49.174Z,3.70
2018-12-24T19:53:18.729Z,3.20
2018-12-24T19:55:48.572Z,3.50
2018-12-24T19:58:18.230Z,3.35
2018-12-24T20:00:47.820Z,3.15
2018-12-24T20:03:17.378Z,2.98
2018-12-24T20:05:47.260Z,3.58
2018-12-24T20:08:16.836Z,3.40
2018-12-24T20:10:46.348Z,3.35
2018-12-24T20:13:15.957Z,3.15
2018-12-24T20:15:45.587Z,3.08
2018-12-24T20:18:15.274Z,3.33
2018-12-24T20:20:44.876Z,3.15
2018-12-24T20:23:14.521Z,2.90
2018-12-24T20:25:44.198Z,2.75
2018-12-24T20:28:13.708Z,3.10
2018-12-24T20:30:43.410Z,3.37
2018-12-24T20:33:13.136Z,2.95
2018-12-24T20:35:42.748Z,2.75
2018-12-24T20:38:12.552Z,3.08
2018-12-24T20:40:42.238Z,3.02
2018-12-24T20:43:11.942Z,3.30
2018-12-24T20:45:41.477Z,2.95
2018-12-24T20:48:11.056Z,2.95
2018-12-24T20:50:40.617Z,2.75
2018-12-24T20:53:10.282Z,3.22
2018-12-24T20:55:39.981Z,3.12
2018-12-24T20:58:09.553Z,2.70
2018-12-24T21:00:39.195Z,2.90
2018-12-24T21:03:08.844Z,3.00
2018-12-24T21:05:38.516Z,2.83
2018-12-24T21:08:08.204Z,2.65
2018-12-24T21:10:37.943Z,2.95
2018-12-24T21:13:07.654Z,2.62
2018-12-24T21:15:37.263Z,2.70
2018-12-24T21:18:14.856Z,2.80
2018-12-24T21:20:38.215Z,2.62
2018-12-24T21:23:07.938Z,2.98
2018-12-24T21:25:37.470Z,2.67
2018-12-24T21:28:07.139Z,2.58
2018-12-24T21:30:36.746Z,2.67
2018-12-24T21:33:06.403Z,2.80
2018-12-24T21:35:36.074Z,2.67
2018-12-24T21:38:05.646Z,2.58
2018-12-24T21:40:35.183Z,2.40
2018-12-24T21:43:04.911Z,2.75
2018-12-24T21:45:34.606Z,2.52
2018-12-24T21:48:04.216Z,2.80
2018-12-24T21:50:33.905Z,2.72
2018-12-24T21:53:03.642Z,2.45
2018-12-24T21:55:33.138Z,2.55
2018-12-24T21:58:02.755Z,2.60
2018-12-24T22:00:32.471Z,2.60
2018-12-24T22:03:02.175Z,2.62
2018-12-24T22:05:31.792Z,2.92
2018-12-24T22:08:01.356Z,2.60
2018-12-24T22:10:30.907Z,2.40
2018-12-24T22:13:00.532Z,2.40
2018-12-24T22:15:30.226Z,2.60
2018-12-24T22:17:59.815Z,2.52
2018-12-24T22:20:29.512Z,2.58
2018-12-24T22:22:59.149Z,2.10
2018-12-24T22:25:28.749Z,2.37
2018-12-24T22:27:58.356Z,2.60
2018-12-24T22:30:28.081Z,2.22
2018-12-24T22:32:57.782Z,2.33
2018-12-24T22:35:27.398Z,2.22
2018-12-24T22:37:56.898Z,2.20
2018-12-24T22:40:26.622Z,2.67
2018-12-24T22:42:56.211Z,2.65
2018-12-24T22:45:25.837Z,2.67
2018-12-24T22:47:55.533Z,2.50
2018-12-24T22:50:25.115Z,2.50
2018-12-24T22:52:54.755Z,2.20
2018-12-24T22:55:24.373Z,2.12
2018-12-24T22:57:54.073Z,2.00
2018-12-24T23:00:40.982Z,2.40
2018-12-24T23:03:10.590Z,2.20
2018-12-24T23:05:40.179Z,2.42
2018-12-24T23:08:09.812Z,2.42
2018-12-24T23:10:39.743Z,2.35
2018-12-24T23:13:09.293Z,2.12
2018-12-24T23:15:38.950Z,2.30
2018-12-24T23:18:08.588Z,2.22
2018-12-24T23:20:38.275Z,2.22
2018-12-24T23:23:07.862Z,2.35
2018-12-24T23:25:37.487Z,2.17
2018-12-24T23:28:07.186Z,2.10
2018-12-24T23:30:36.698Z,1.90
2018-12-24T23:33:06.381Z,2.35
2018-12-24T23:35:36.020Z,2.05
2018-12-24T23:38:05.826Z,1.90
2018-12-24T23:40:35.442Z,1.82
2018-12-24T23:43:05.042Z,2.20
2018-12-24T23:45:34.656Z,1.90
2018-12-24T23:48:04.285Z,1.95
2018-12-24T23:50:33.989Z,2.30
2018-12-24T23:53:03.583Z,2.02
2018-12-24T23:55:33.191Z,1.92
2018-12-24T23:58:02.938Z,1.80
